createdAt,value
2022-10-13T00:01:16.441Z,102079.51
2022-10-13T00:03:47.314Z,102085.27
2022-10-13T00:06:16.766Z,102086.45
2022-10-13T00:08:44.612Z,102083.56
2022-10-13T00:11:17.839Z,102085.62
2022-10-13T00:13:46.037Z,102081.54
2022-10-13T00:16:15.391Z,102085.27
2022-10-13T00:18:43.329Z,102085.62
2022-10-13T00:21:12.580Z,102086.45
2022-10-13T00:23:40.713Z,102084.25
2022-10-13T00:26:10.532Z,102083.89
2022-10-13T00:28:38.470Z,102083.08
2022-10-13T00:31:22.142Z,102083.08
2022-10-13T00:33:50.558Z,102090.01
2022-10-13T00:36:18.414Z,102094.09
2022-10-13T00:38:46.383Z,102094.78
2022-10-13T00:41:14.154Z,102098.80
2022-10-13T00:44:08.554Z,102091.70
2022-10-13T00:46:41.140Z,102095.08
2022-10-13T00:49:13.848Z,102094.26
2022-10-13T00:51:43.250Z,102098.31
2022-10-13T00:54:11.535Z,102106.06
2022-10-13T00:56:39.314Z,102099.49
2022-10-13T00:59:10.499Z,102110.15
2022-10-13T01:01:39.096Z,102108.80
2022-10-13T01:04:06.819Z,102101.38
2022-10-13T01:06:34.582Z,102096.48
2022-10-13T01:09:07.184Z,102095.63
2022-10-13T01:12:00.393Z,102089.88
2022-10-13T01:14:44.848Z,102087.00
2022-10-13T01:17:36.267Z,102084.80
2022-10-13T01:20:24.381Z,102069.48
2022-10-13T01:23:26.312Z,102082.13
2022-10-13T01:26:27.077Z,102079.61
2022-10-13T01:29:20.906Z,102075.91
2022-10-13T01:32:00.817Z,102061.85
2022-10-13T01:34:31.856Z,102064.24
2022-10-13T01:37:06.718Z,102075.26
2022-10-13T01:39:39.284Z,102063.75
2022-10-13T01:42:14.359Z,102061.73
2022-10-13T01:44:44.473Z,102061.20
2022-10-13T01:47:12.174Z,102064.08
2022-10-13T01:49:39.966Z,102069.51
2022-10-13T01:52:16.460Z,102067.97
2022-10-13T01:54:44.433Z,102060.19
2022-10-13T01:57:30.737Z,102051.20
2022-10-13T02:00:05.092Z,102061.85
2022-10-13T02:02:57.573Z,102069.67
2022-10-13T02:05:50.127Z,102059.37
2022-10-13T02:08:40.652Z,102068.82
2022-10-13T02:11:19.373Z,102061.37
2022-10-13T02:14:14.828Z,102052.73
2022-10-13T02:16:43.688Z,102057.31
2022-10-13T02:19:16.064Z,102050.22
2022-10-13T02:21:43.955Z,102049.04
2022-10-13T02:24:11.694Z,102048.35
2022-10-13T02:26:39.464Z,102044.98
2022-10-13T02:29:14.372Z,102047.86
2022-10-13T02:31:42.489Z,102047.34
2022-10-13T02:34:10.493Z,102045.67
2022-10-13T02:36:41.322Z,102048.55
2022-10-13T02:39:09.979Z,102056.66
2022-10-13T02:41:37.780Z,102051.75
2022-10-13T02:44:08.119Z,102046.36
2022-10-13T02:46:36.236Z,102049.56
2022-10-13T02:49:03.972Z,102056.16
2022-10-13T02:51:34.138Z,102047.89
2022-10-13T02:54:05.336Z,102044.66
2022-10-13T02:56:33.055Z,102044.66
2022-10-13T02:59:00.811Z,102044.66
2022-10-13T03:01:28.585Z,102044.66
2022-10-13T03:03:56.330Z,102038.91
2022-10-13T03:06:24.097Z,102042.47
2022-10-13T03:08:51.849Z,102047.08
2022-10-13T03:11:19.698Z,102043.19
2022-10-13T03:13:47.448Z,102044.36
2022-10-13T03:16:15.242Z,102046.75
2022-10-13T03:18:43.025Z,102049.59
2022-10-13T03:21:10.975Z,102052.14
2022-10-13T03:23:38.686Z,102054.34
2022-10-13T03:26:06.615Z,102053.84
2022-10-13T03:28:34.856Z,102043.87
2022-10-13T03:31:03.776Z,102046.75
2022-10-13T03:33:31.496Z,102058.23
2022-10-13T03:36:01.471Z,102057.05
2022-10-13T03:38:32.800Z,102058.59
2022-10-13T03:41:06.346Z,102054.53
2022-10-13T03:43:34.187Z,102050.45
2022-10-13T03:46:02.442Z,102053.68
2022-10-13T03:48:30.239Z,102051.33
2022-10-13T03:50:58.049Z,102046.26
2022-10-13T03:53:26.132Z,102048.25
2022-10-13T03:55:54.876Z,102054.01
2022-10-13T03:58:23.067Z,102049.13
2022-10-13T04:00:51.185Z,102059.44
2022-10-13T04:03:19.108Z,102053.68
2022-10-13T04:05:47.083Z,102047.93
2022-10-13T04:08:15.162Z,102050.97
2022-10-13T04:10:43.063Z,102048.45
2022-10-13T04:13:15.902Z,102043.19
2022-10-13T04:15:47.473Z,102037.27
2022-10-13T04:18:19.459Z,102033.05
2022-10-13T04:20:47.237Z,102030.20
2022-10-13T04:23:15.512Z,102028.83
2022-10-13T04:25:43.323Z,102034.13
2022-10-13T04:28:13.724Z,102032.92
2022-10-13T04:30:45.791Z,102039.49
2022-10-13T04:33:16.288Z,102032.40
2022-10-13T04:35:44.114Z,102037.82
2022-10-13T04:38:11.801Z,102048.13
2022-10-13T04:40:44.351Z,102045.73
2022-10-13T04:43:12.092Z,102054.70
2022-10-13T04:45:39.893Z,102036.29
2022-10-13T04:48:07.774Z,102036.62
2022-10-13T04:50:35.537Z,102034.26
2022-10-13T04:53:03.375Z,102030.20
2022-10-13T04:55:31.148Z,102029.35
2022-10-13T04:57:58.834Z,102035.80
2022-10-13T05:00:26.657Z,102032.07
2022-10-13T05:02:54.530Z,102022.26
2022-10-13T05:05:22.325Z,102028.83
2022-10-13T05:07:50.007Z,102020.23
2022-10-13T05:10:17.768Z,102025.14
2022-10-13T05:12:45.765Z,102017.72
2022-10-13T05:15:18.339Z,102032.92
2022-10-13T05:17:46.260Z,102027.16
2022-10-13T05:20:14.047Z,102023.96
2022-10-13T05:22:41.921Z,102031.71
2022-10-13T05:25:09.775Z,102037.14
2022-10-13T05:27:37.614Z,102035.11
2022-10-13T05:30:05.584Z,102027.33
2022-10-13T05:32:33.415Z,102027.33
2022-10-13T05:35:01.122Z,102032.73
2022-10-13T05:37:28.927Z,102032.36
2022-10-13T05:40:01.703Z,102029.48
2022-10-13T05:42:29.986Z,102026.64
2022-10-13T05:44:58.777Z,102023.77
2022-10-13T05:47:30.146Z,102027.98
2022-10-13T05:49:57.879Z,102019.71
2022-10-13T05:52:25.798Z,102026.28
2022-10-13T05:54:58.026Z,102019.35
2022-10-13T05:57:26.628Z,102022.59
2022-10-13T05:59:56.725Z,102025.46
2022-10-13T06:02:25.928Z,102025.46
2022-10-13T06:04:56.772Z,102022.23
2022-10-13T06:07:24.599Z,102017.16
2022-10-13T06:09:52.351Z,102018.50
2022-10-13T06:12:20.613Z,102020.20
2022-10-13T06:14:48.607Z,102024.42
2022-10-13T06:17:16.619Z,102029.13
2022-10-13T06:19:48.995Z,102036.19
2022-10-13T06:22:16.827Z,102040.77
2022-10-13T06:24:44.590Z,102032.79
2022-10-13T06:27:12.538Z,102028.73
2022-10-13T06:29:40.501Z,102031.25
2022-10-13T06:32:08.258Z,102023.11
2022-10-13T06:34:36.037Z,102013.66
2022-10-13T06:37:03.840Z,102023.96
2022-10-13T06:39:31.590Z,102019.22
2022-10-13T06:41:59.328Z,102016.67
2022-10-13T06:44:27.054Z,102022.42
2022-10-13T06:46:54.847Z,102020.89
2022-10-13T06:49:22.633Z,102017.52
2022-10-13T06:51:50.697Z,102008.43
2022-10-13T06:54:21.226Z,102007.55
2022-10-13T06:56:48.991Z,102008.76
2022-10-13T06:59:16.768Z,102008.04
2022-10-13T07:01:44.631Z,102016.67
2022-10-13T07:04:12.386Z,102015.13
2022-10-13T07:06:40.196Z,102014.31
2022-10-13T07:09:08.356Z,102013.63
2022-10-13T07:11:36.933Z,102016.11
2022-10-13T07:14:04.695Z,102025.79
2022-10-13T07:16:32.730Z,102019.68
2022-10-13T07:19:00.490Z,102023.21
2022-10-13T07:21:28.219Z,102022.23
2022-10-13T07:23:56.055Z,102023.90
2022-10-13T07:26:23.903Z,102017.09
2022-10-13T07:28:51.918Z,102017.78
2022-10-13T07:31:21.236Z,102012.02
2022-10-13T07:33:50.084Z,102019.13
2022-10-13T07:36:20.046Z,102018.27
2022-10-13T07:38:47.895Z,102024.71
2022-10-13T07:41:15.933Z,102016.60
2022-10-13T07:43:43.843Z,102009.51
2022-10-13T07:46:13.208Z,102009.51
2022-10-13T07:48:41.007Z,102014.45
2022-10-13T07:51:10.097Z,102000.38
2022-10-13T07:53:37.880Z,101993.09
2022-10-13T07:56:07.040Z,102001.40
2022-10-13T07:58:35.726Z,101998.98
2022-10-13T08:01:03.671Z,101999.11
2022-10-13T08:03:31.610Z,101996.56
2022-10-13T08:06:03.730Z,101994.66
2022-10-13T08:08:31.558Z,101989.59
2022-10-13T08:11:16.232Z,101984.73
2022-10-13T08:13:48.303Z,101982.47
2022-10-13T08:16:16.070Z,101984.27
2022-10-13T08:18:43.832Z,101981.78
2022-10-13T08:24:02.007Z,101988.26
2022-10-13T08:26:29.829Z,101990.16
2022-10-13T08:29:16.685Z,101988.62
2022-10-13T08:31:45.676Z,101986.82
2022-10-13T08:34:13.902Z,101980.80
2022-10-13T08:36:41.849Z,101981.78
2022-10-13T08:39:09.738Z,101971.32
2022-10-13T08:41:47.033Z,101975.54
2022-10-13T08:47:46.099Z,101976.03
2022-10-13T08:50:19.811Z,101985.74
2022-10-13T08:52:51.585Z,101990.41
2022-10-13T08:55:31.215Z,101991.46
2022-10-13T08:57:59.219Z,101987.96
2022-10-13T09:00:27.177Z,101986.91
2022-10-13T09:02:54.964Z,101985.84
2022-10-13T09:05:44.638Z,101983.55
2022-10-13T09:08:17.295Z,101985.38
2022-10-13T09:10:51.797Z,101981.78
2022-10-13T09:13:19.829Z,101985.28
2022-10-13T09:15:48.877Z,101983.45
2022-10-13T09:18:16.610Z,101978.31
2022-10-13T09:20:44.362Z,101982.63
2022-10-13T09:23:22.556Z,101971.71
2022-10-13T09:25:52.320Z,101979.00
2022-10-13T09:28:30.943Z,101972.14
2022-10-13T09:31:02.350Z,101974.78
2022-10-13T09:33:34.864Z,101974.06
2022-10-13T09:36:03.358Z,101977.66
2022-10-13T09:38:31.073Z,101969.23
2022-10-13T09:41:13.503Z,101974.95
2022-10-13T09:43:48.009Z,101974.03
2022-10-13T09:46:27.305Z,101971.26
2022-10-13T09:49:05.866Z,101969.85
2022-10-13T09:51:42.343Z,101971.05
2022-10-13T09:54:34.770Z,101967.95
2022-10-13T09:57:09.049Z,101974.78
2022-10-13T09:59:38.515Z,101977.47
2022-10-13T10:02:49.537Z,101978.19
2022-10-13T10:05:23.637Z,101974.10
2022-10-13T10:07:51.478Z,101977.59
2022-10-13T10:10:34.253Z,101977.37
2022-10-13T10:13:02.689Z,101977.92
2022-10-13T10:15:40.149Z,101983.13
2022-10-13T10:18:31.058Z,101978.91
2022-10-13T10:21:30.705Z,101978.64
2022-10-13T10:24:19.488Z,101971.45
2022-10-13T10:26:59.090Z,101980.34
2022-10-13T10:29:38.238Z,101987.99
2022-10-13T10:32:21.523Z,101996.07
2022-10-13T10:34:57.182Z,101985.58
2022-10-13T10:37:54.567Z,101976.13
2022-10-13T10:40:22.154Z,101978.61
2022-10-13T10:42:52.891Z,101962.46
2022-10-13T10:45:26.441Z,101962.33
2022-10-13T10:48:08.840Z,101960.89
2022-10-13T10:50:36.602Z,101948.53
2022-10-13T10:53:12.989Z,101941.08
2022-10-13T10:56:10.327Z,101931.33
2022-10-13T10:58:59.525Z,101940.95
2022-10-13T11:01:40.128Z,101946.93
2022-10-13T11:04:30.204Z,101944.77
2022-10-13T11:06:58.022Z,101941.04
2022-10-13T11:09:44.017Z,101940.59
2022-10-13T11:12:21.487Z,101940.95
2022-10-13T11:14:55.746Z,101953.20
2022-10-13T11:17:33.951Z,101932.67
2022-10-13T11:20:01.728Z,101922.08
2022-10-13T11:22:30.476Z,101913.64
2022-10-13T11:25:03.171Z,101906.52
2022-10-13T11:27:34.087Z,101909.39
2022-10-13T11:30:02.144Z,101899.75
2022-10-13T11:32:42.524Z,101902.13
2022-10-13T11:35:13.125Z,101899.84
2022-10-13T11:38:07.977Z,101900.40
2022-10-13T11:40:47.477Z,101907.86
2022-10-13T11:43:18.727Z,101908.34
2022-10-13T11:46:10.319Z,101904.98
2022-10-13T11:48:37.975Z,101904.52
2022-10-13T11:51:30.842Z,101897.03
2022-10-13T11:54:12.647Z,101897.03
2022-10-13T11:56:54.475Z,101891.67
2022-10-13T11:59:34.637Z,101898.63
2022-10-13T12:02:11.546Z,101896.94
2022-10-13T12:04:45.557Z,101888.14
2022-10-13T12:07:16.053Z,101880.42
2022-10-13T12:09:54.393Z,101870.81
2022-10-13T12:12:23.023Z,101868.03
2022-10-13T12:14:54.934Z,101855.64
2022-10-13T12:17:24.198Z,101863.29
2022-10-13T12:19:52.618Z,101858.26
2022-10-13T12:22:20.339Z,101854.13
2022-10-13T12:25:03.442Z,101854.98
2022-10-13T12:27:34.896Z,101849.10
2022-10-13T12:30:03.395Z,101839.88
2022-10-13T12:32:33.262Z,101837.46
2022-10-13T12:35:25.095Z,101825.30
2022-10-13T12:37:53.107Z,101832.00
2022-10-13T12:40:21.034Z,101822.81
2022-10-13T12:42:49.740Z,101817.88
2022-10-13T12:45:19.029Z,101823.76
2022-10-13T12:47:50.470Z,101819.55
2022-10-13T12:50:28.557Z,101817.52
2022-10-13T12:53:23.075Z,101823.66
2022-10-13T12:55:54.650Z,101819.45
2022-10-13T12:58:32.902Z,101817.13
2022-10-13T13:01:08.188Z,101813.23
2022-10-13T13:03:37.452Z,101806.76
2022-10-13T13:06:22.637Z,101806.59
2022-10-13T13:09:28.783Z,101809.60
2022-10-13T13:12:11.641Z,101798.06
2022-10-13T13:14:44.073Z,101795.05
2022-10-13T13:17:56.549Z,101798.32
2022-10-13T13:20:32.893Z,101793.29
2022-10-13T13:23:00.799Z,101784.66
2022-10-13T13:25:28.676Z,101787.44
2022-10-13T13:27:56.511Z,101791.42
2022-10-13T13:30:25.357Z,101797.27
2022-10-13T13:32:53.151Z,101789.95
2022-10-13T13:35:20.982Z,101796.10
2022-10-13T13:37:50.739Z,101793.23
2022-10-13T13:40:23.945Z,101792.27
2022-10-13T13:42:51.697Z,101795.45
2022-10-13T13:45:20.974Z,101797.02
2022-10-13T13:47:48.941Z,101788.29
2022-10-13T13:50:26.334Z,101790.12
2022-10-13T13:52:54.133Z,101785.73
2022-10-13T13:55:21.891Z,101781.45
2022-10-13T13:57:49.627Z,101770.76
2022-10-13T14:00:17.699Z,101783.35
2022-10-13T14:02:45.773Z,101773.15
2022-10-13T14:05:13.699Z,101772.20
2022-10-13T14:07:42.012Z,101769.26
2022-10-13T14:10:10.497Z,101769.84
2022-10-13T14:12:38.453Z,101762.85
2022-10-13T14:15:06.561Z,101756.84
2022-10-13T14:17:34.440Z,101751.90
2022-10-13T14:20:02.246Z,101746.11
2022-10-13T14:22:30.012Z,101753.56
2022-10-13T14:24:57.794Z,101755.16
2022-10-13T14:27:26.427Z,101761.38
2022-10-13T14:29:54.255Z,101755.98
2022-10-13T14:32:22.219Z,101759.71
2022-10-13T14:34:50.289Z,101758.40
2022-10-13T14:37:22.172Z,101750.49
2022-10-13T14:39:50.865Z,101750.39
2022-10-13T14:42:18.606Z,101756.08
2022-10-13T14:44:46.427Z,101750.20
2022-10-13T14:47:14.301Z,101755.59
2022-10-13T14:49:42.102Z,101746.47
2022-10-13T14:52:10.199Z,101755.98
2022-10-13T14:54:41.239Z,101759.94
2022-10-13T14:57:16.595Z,101748.79
2022-10-13T14:59:44.420Z,101746.27
2022-10-13T15:02:12.689Z,101740.38
2022-10-13T15:04:40.470Z,101739.93
2022-10-13T15:07:08.256Z,101741.04
2022-10-13T15:09:52.138Z,101737.67
2022-10-13T15:12:24.172Z,101729.01
2022-10-13T15:14:52.183Z,101727.70
2022-10-13T15:17:19.998Z,101727.11
2022-10-13T15:19:47.729Z,101734.50
2022-10-13T15:22:15.553Z,101727.05
2022-10-13T15:24:44.490Z,101736.89
2022-10-13T15:27:12.401Z,101739.30
2022-10-13T15:29:40.208Z,101738.45
2022-10-13T15:32:09.977Z,101734.73
2022-10-13T15:34:39.890Z,101735.48
2022-10-13T15:37:08.163Z,101735.84
2022-10-13T15:39:36.022Z,101725.90
2022-10-13T15:42:04.534Z,101725.02
2022-10-13T15:44:51.113Z,101717.50
2022-10-13T15:47:20.172Z,101721.59
2022-10-13T15:49:48.032Z,101728.91
2022-10-13T15:52:15.799Z,101724.82
2022-10-13T15:54:43.617Z,101726.78
2022-10-13T15:57:11.316Z,101727.02
2022-10-13T15:59:46.368Z,101733.62
2022-10-13T16:02:14.188Z,101726.82
2022-10-13T16:04:41.909Z,101721.88
2022-10-13T16:07:09.651Z,101730.15
2022-10-13T16:09:37.418Z,101726.09
2022-10-13T16:12:05.335Z,101719.85
2022-10-13T16:14:33.171Z,101719.59
2022-10-13T16:17:00.927Z,101719.95
2022-10-13T16:19:28.694Z,101725.34
2022-10-13T16:21:56.488Z,101719.69
2022-10-13T16:24:24.364Z,101718.12
2022-10-13T16:26:52.192Z,101720.05
2022-10-13T16:29:20.072Z,101719.20
2022-10-13T16:31:47.873Z,101720.54
2022-10-13T16:34:15.645Z,101716.42
2022-10-13T16:36:43.400Z,101720.28
2022-10-13T16:39:11.100Z,101718.12
2022-10-13T16:41:39.945Z,101719.33
2022-10-13T16:44:07.812Z,101716.42
2022-10-13T16:46:35.756Z,101709.84
2022-10-13T16:49:04.060Z,101719.59
2022-10-13T16:51:31.820Z,101716.95
2022-10-13T16:54:03.870Z,101709.03
2022-10-13T16:56:32.404Z,101705.70
2022-10-13T16:59:04.836Z,101699.09
2022-10-13T17:01:32.950Z,101704.26
2022-10-13T17:04:00.881Z,101718.22
2022-10-13T17:06:29.633Z,101718.80
2022-10-13T17:09:01.288Z,101713.74
2022-10-13T17:11:33.972Z,101720.34
2022-10-13T17:14:02.062Z,101721.91
2022-10-13T17:16:30.134Z,101726.72
2022-10-13T17:18:57.932Z,101743.13
2022-10-13T17:21:25.778Z,101736.79
2022-10-13T17:23:55.333Z,101735.13
2022-10-13T17:26:23.195Z,101731.43
2022-10-13T17:28:51.134Z,101730.94
2022-10-13T17:31:20.555Z,101737.67
2022-10-13T17:33:48.604Z,101741.37
2022-10-13T17:36:26.993Z,101731.52
2022-10-13T17:38:56.248Z,101720.38
2022-10-13T17:41:24.317Z,101734.63
2022-10-13T17:43:52.528Z,101723.97
2022-10-13T17:46:40.299Z,101736.69
2022-10-13T17:49:08.853Z,101717.37
2022-10-13T17:51:36.678Z,101726.85
2022-10-13T17:54:04.980Z,101722.41
2022-10-13T17:56:32.919Z,101725.18
2022-10-13T17:59:01.829Z,101728.78
2022-10-13T18:01:33.664Z,101722.27
2022-10-13T18:04:03.331Z,101728.87
2022-10-13T18:06:37.723Z,101724.43
2022-10-13T18:09:07.612Z,101728.16
2022-10-13T18:11:35.700Z,101731.03
2022-10-13T18:14:03.577Z,101734.80
2022-10-13T18:16:31.386Z,101738.09
2022-10-13T18:18:59.209Z,101731.52
2022-10-13T18:21:31.122Z,101726.59
2022-10-13T18:24:03.633Z,101729.86
2022-10-13T18:26:38.643Z,101750.45
2022-10-13T18:29:07.106Z,101744.24
2022-10-13T18:31:37.076Z,101733.20
2022-10-13T18:34:06.855Z,101753.62
2022-10-13T18:36:39.351Z,101751.08
2022-10-13T18:39:13.865Z,101736.23
2022-10-13T18:41:41.683Z,101750.49
2022-10-13T18:44:13.982Z,101753.73
2022-10-13T18:46:41.861Z,101756.51
2022-10-13T18:49:12.042Z,101760.43
2022-10-13T18:51:40.192Z,101771.52
2022-10-13T18:54:08.451Z,101761.90
2022-10-13T18:56:37.904Z,101768.02
2022-10-13T18:59:07.131Z,101772.79
2022-10-13T19:01:36.305Z,101771.84
2022-10-13T19:04:04.231Z,101772.56
2022-10-13T19:06:33.480Z,101765.46
2022-10-13T19:09:05.753Z,101765.86
2022-10-13T19:11:33.888Z,101764.88
2022-10-13T19:14:01.979Z,101761.54
2022-10-13T19:16:30.870Z,101762.26
2022-10-13T19:18:58.907Z,101766.67
2022-10-13T19:21:26.778Z,101767.52
2022-10-13T19:23:54.766Z,101759.25
2022-10-13T19:26:27.150Z,101767.39
2022-10-13T19:29:03.572Z,101778.41
2022-10-13T19:31:32.157Z,101779.63
2022-10-13T19:34:00.341Z,101777.95
2022-10-13T19:36:33.623Z,101777.95
2022-10-13T19:39:02.335Z,101785.12
2022-10-13T19:41:34.506Z,101783.80
2022-10-13T19:44:02.337Z,101766.87
2022-10-13T19:46:30.720Z,101771.55
2022-10-13T19:48:58.660Z,101773.93
2022-10-13T19:51:26.434Z,101775.14
2022-10-13T19:53:54.716Z,101775.83
2022-10-13T19:56:29.847Z,101774.52
2022-10-13T19:58:57.801Z,101769.59
2022-10-13T20:01:26.511Z,101768.77
2022-10-13T20:03:55.620Z,101765.89
2022-10-13T20:06:23.497Z,101770.17
2022-10-13T20:08:51.486Z,101762.62
2022-10-13T20:11:24.475Z,101762.33
2022-10-13T20:13:52.994Z,101769.48
2022-10-13T20:16:22.828Z,101772.23
2022-10-13T20:18:54.952Z,101766.70
2022-10-13T20:21:22.828Z,101767.52
2022-10-13T20:23:50.742Z,101774.98
2022-10-13T20:26:18.885Z,101774.00
2022-10-13T20:28:47.525Z,101773.64
2022-10-13T20:31:16.105Z,101781.42
2022-10-13T20:33:44.892Z,101774.48
2022-10-13T20:36:15.228Z,101774.85
2022-10-13T20:38:43.061Z,101786.55
2022-10-13T20:41:25.977Z,101792.30
2022-10-13T20:43:55.072Z,101793.26
2022-10-13T20:46:23.440Z,101792.30
2022-10-13T20:49:10.354Z,101792.30
2022-10-13T20:51:39.480Z,101796.85
2022-10-13T20:54:07.311Z,101793.48
2022-10-13T20:56:35.076Z,101794.20
2022-10-13T20:59:04.718Z,101791.33
2022-10-13T21:01:32.674Z,101786.29
2022-10-13T21:04:00.462Z,101792.50
2022-10-13T21:06:28.289Z,101792.50
2022-10-13T21:08:56.035Z,101790.31
2022-10-13T21:11:24.207Z,101793.59
2022-10-13T21:13:52.273Z,101790.31
2022-10-13T21:16:22.705Z,101791.52
2022-10-13T21:18:52.340Z,101804.70
2022-10-13T21:21:24.249Z,101801.13
2022-10-13T21:23:55.473Z,101803.98
2022-10-13T21:26:23.890Z,101808.20
2022-10-13T21:28:51.917Z,101802.45
2022-10-13T21:31:23.625Z,101804.50
2022-10-13T21:33:51.901Z,101799.96
2022-10-13T21:36:20.555Z,101808.91
2022-10-13T21:38:48.602Z,101801.82
2022-10-13T21:41:16.449Z,101803.36
2022-10-13T21:43:44.347Z,101813.37
2022-10-13T21:46:19.491Z,101809.67
2022-10-13T21:48:47.838Z,101811.70
2022-10-13T21:51:20.682Z,101815.91
2022-10-13T21:53:52.685Z,101816.37
2022-10-13T21:56:20.655Z,101818.92
2022-10-13T21:58:48.658Z,101816.37
2022-10-13T22:01:17.556Z,101816.05
2022-10-13T22:03:45.388Z,101809.48
2022-10-13T22:06:19.382Z,101812.35
2022-10-13T22:08:49.129Z,101817.26
2022-10-13T22:11:17.306Z,101818.56
2022-10-13T22:13:47.605Z,101812.09
2022-10-13T22:16:17.880Z,101818.73
2022-10-13T22:18:45.996Z,101822.75
2022-10-13T22:21:16.145Z,101818.73
2022-10-13T22:23:44.017Z,101820.52
2022-10-13T22:26:11.930Z,101814.45
2022-10-13T22:28:40.202Z,101806.98
2022-10-13T22:31:12.530Z,101812.25
2022-10-13T22:33:41.203Z,101808.07
2022-10-13T22:36:10.083Z,101814.64
2022-10-13T22:38:37.951Z,101808.39
2022-10-13T22:41:06.603Z,101810.81
2022-10-13T22:43:34.490Z,101816.54
2022-10-13T22:46:05.194Z,101814.02
2022-10-13T22:48:38.235Z,101811.50
2022-10-13T22:51:08.684Z,101811.01
2022-10-13T22:53:36.460Z,101811.01
2022-10-13T22:56:08.494Z,101809.80
2022-10-13T22:58:36.301Z,101807.77
2022-10-13T23:01:18.437Z,101810.65
2022-10-13T23:03:50.158Z,101802.02
2022-10-13T23:06:19.201Z,101801.04
2022-10-13T23:08:46.996Z,101801.43
2022-10-13T23:11:14.871Z,101810.88
2022-10-13T23:13:42.911Z,101805.59
2022-10-13T23:16:12.684Z,101811.83
2022-10-13T23:18:40.816Z,101794.59
2022-10-13T23:21:09.629Z,101800.35
2022-10-13T23:23:37.493Z,101796.63
2022-10-13T23:26:06.302Z,101795.80
2022-10-13T23:28:34.229Z,101809.80
2022-10-13T23:31:06.986Z,101806.10
2022-10-13T23:33:34.926Z,101804.90
2022-10-13T23:36:03.665Z,101805.26
2022-10-13T23:38:31.811Z,101803.59
2022-10-13T23:41:07.567Z,101799.01
2022-10-13T23:43:35.384Z,101796.13
2022-10-13T23:46:03.191Z,101802.25
2022-10-13T23:48:31.029Z,101801.43
2022-10-13T23:50:58.825Z,101805.12
2022-10-13T23:53:26.658Z,101793.98
2022-10-13T23:55:54.496Z,101791.10
2022-10-13T23:58:22.300Z,101787.05
